Stamps, Texas
Current Conditions -  °F | °C
As of 2:15 PM on Sunday 23 Nov 2014 (Local Time) from KOSA Reporting Station
Clear Clear  
Wind Chill: 73°   Ceiling: Unl
Heat Index: 73°   Visibility: 10mi
Dew Point: 55°   Wind: 14mph
Humidity: 53%   Direction: 200°SSW
Pressure: 29.4"   Gusts: 18mph
Location:  32.7353°N, 94.9492°W
Report Text: KOSA 232015Z AUTO 20012G16KT 10SM CLR 23/13 A2940 RMK AO1 T02270128
Loading
Personal Weather Stations






























Interactive Weather Map New forecast layout! Learn more

10-Day Weather Forecast

Advertisements
Track Severe Weather on mobile